Time;durP1;ratioP1;P1;durP2;ratioP2;P2;SDS_P1;SDS_P2;PMS_P1;PMS_P2;Temp;Humidity;BMP_temperature;BMP_pressure;BME280_temperature;BME280_humidity;BME280_pressure;Samples;Min_cycle;Max_cycle;Signal;HPM_P1;HPM_P2
2023/09/08 00:01:00;;;;;;;;;;;;;;;22.63;54.85;101798.78;4171377;28;20610;-63
2023/09/08 00:03:02;;;;;;;;;;;;;;;22.62;54.80;101802.59;4169680;28;20373;-64
2023/09/08 00:05:05;;;;;;;;;;;;;;;22.59;55.14;101791.22;4169659;28;20033;-64
2023/09/08 00:07:07;;;;;;;;;;;;;;;22.55;54.96;101790.84;4171050;28;20024;-64
2023/09/08 00:09:09;;;;;;;;;;;;;;;22.53;55.25;101787.47;4171666;28;20020;-64
2023/09/08 00:11:11;;;;;;;;;;;;;;;22.50;55.12;101786.03;4170973;28;20025;-64
2023/09/08 00:13:13;;;;;;;;;;;;;;;22.49;55.13;101783.50;4171003;28;20008;-65
2023/09/08 00:15:15;;;;;;;;;;;;;;;22.48;55.21;101788.19;4171282;28;20028;-64
2023/09/08 00:17:18;;;;;;;;;;;;;;;22.46;55.23;101786.72;4170922;28;19936;-63
2023/09/08 00:19:20;;;;;;;;;;;;;;;22.45;55.31;101793.31;4171297;28;20861;-62
2023/09/08 00:21:22;;;;;;;;;;;;;;;22.43;55.43;101787.19;4170656;28;20020;-64
2023/09/08 00:23:26;;;;;;;;;;;;;;;22.41;55.18;101787.41;4171679;28;20016;-65
2023/09/08 00:25:28;;;;;;;;;;;;;;;22.40;55.40;101784.88;4171040;28;20622;-63
2023/09/08 00:27:30;;;;;;;;;;;;;;;22.36;55.48;101784.50;4170799;28;20027;-63
2023/09/08 00:29:32;;;;;;;;;;;;;;;22.34;55.56;101774.81;4171011;28;20025;-62
2023/09/08 00:31:34;;;;;;;;;;;;;;;22.30;55.60;101775.28;4170464;28;20011;-63
2023/09/08 00:33:38;;;;;;;;;;;;;;;22.29;55.68;101772.72;4171061;28;20024;-64
2023/09/08 00:35:40;;;;;;;;;;;;;;;22.26;55.88;101776.78;4170874;28;20363;-64
2023/09/08 00:37:42;;;;;;;;;;;;;;;22.25;56.01;101771.50;4169483;28;19929;-64
2023/09/08 00:39:44;;;;;;;;;;;;;;;22.22;55.96;101778.28;4175613;28;20051;-62
2023/09/08 00:41:46;;;;;;;;;;;;;;;22.19;55.98;101773.25;4170439;28;20020;-64
2023/09/08 00:43:48;;;;;;;;;;;;;;;22.17;56.36;101771.81;4185651;28;20031;-63
2023/09/08 00:45:50;;;;;;;;;;;;;;;22.14;56.48;101773.09;4170436;28;20024;-64
2023/09/08 00:47:52;;;;;;;;;;;;;;;22.10;56.50;101769.97;4169149;28;20103;-64
2023/09/08 00:49:55;;;;;;;;;;;;;;;22.09;56.60;101773.78;4184949;28;20036;-62
2023/09/08 00:51:58;;;;;;;;;;;;;;;22.06;56.50;101770.66;4170894;28;20044;-64
2023/09/08 00:54:00;;;;;;;;;;;;;;;22.04;56.76;101783.81;4171021;28;20019;-64
2023/09/08 00:56:02;;;;;;;;;;;;;;;22.01;56.68;101779.59;4176315;28;20019;-64
2023/09/08 00:58:04;;;;;;;;;;;;;;;21.98;56.83;101777.31;4169946;28;19925;-64
2023/09/08 01:00:07;;;;;;;;;;;;;;;21.94;56.99;101779.69;4170130;28;20023;-62
2023/09/08 01:02:09;;;;;;;;;;;;;;;21.92;56.95;101779.06;4170930;28;20040;-64
2023/09/08 01:04:11;;;;;;;;;;;;;;;21.88;57.02;101780.59;4186308;28;20022;-64
2023/09/08 01:06:16;;;;;;;;;;;;;;;21.86;57.18;101782.72;4171131;28;20335;-64
2023/09/08 01:08:18;;;;;;;;;;;;;;;21.84;57.23;101775.78;4170840;28;20552;-64
2023/09/08 01:10:20;;;;;;;;;;;;;;;21.82;57.21;101783.38;4170231;28;20027;-64
2023/09/08 01:12:22;;;;;;;;;;;;;;;21.79;57.42;101776.44;4170750;28;20019;-64
2023/09/08 01:14:26;;;;;;;;;;;;;;;21.76;57.33;101780.47;4177022;28;20031;-62
2023/09/08 01:16:28;;;;;;;;;;;;;;;21.74;57.75;101771.63;4173879;28;20028;-65
2023/09/08 01:18:30;;;;;;;;;;;;;;;21.72;57.70;101775.66;4173459;28;20512;-65
2023/09/08 01:20:33;;;;;;;;;;;;;;;21.68;57.78;101772.53;4172246;28;20019;-63
2023/09/08 01:22:50;;;;;;;;;;;;;;;21.66;57.71;101777.44;4173964;28;20020;-63
2023/09/08 01:25:03;;;;;;;;;;;;;;;21.64;57.72;101773.22;4188786;28;20016;-64
2023/09/08 01:27:07;;;;;;;;;;;;;;;21.62;57.91;101780.84;4173945;28;20054;-64
2023/09/08 01:29:09;;;;;;;;;;;;;;;21.60;58.07;101770.09;4173581;28;20015;-64
2023/09/08 01:31:11;;;;;;;;;;;;;;;21.57;58.34;101771.38;4172754;28;20478;-65
2023/09/08 01:33:12;;;;;;;;;;;;;;;21.54;57.92;101769.06;4179560;28;20440;-63
2023/09/08 01:35:14;;;;;;;;;;;;;;;21.52;58.12;101771.22;4178572;28;19999;-64
2023/09/08 01:37:15;;;;;;;;;;;;;;;21.51;58.17;101771.44;4173628;28;20015;-64
2023/09/08 01:39:17;;;;;;;;;;;;;;;21.49;58.06;101770.78;4172413;28;19925;-65
2023/09/08 01:41:20;;;;;;;;;;;;;;;21.45;58.35;101775.88;4187507;28;20041;-64
2023/09/08 01:43:22;;;;;;;;;;;;;;;21.44;58.23;101771.44;4173811;28;20027;-64
2023/09/08 01:45:26;;;;;;;;;;;;;;;21.40;58.33;101765.56;4173571;28;20011;-62
2023/09/08 01:47:28;;;;;;;;;;;;;;;21.36;58.41;101764.34;4172841;28;20019;-61
2023/09/08 01:49:31;;;;;;;;;;;;;;;21.35;58.47;101759.91;4172936;28;20051;-63
2023/09/08 01:51:34;;;;;;;;;;;;;;;21.33;58.62;101756.53;4172649;28;20047;-65
2023/09/08 01:53:36;;;;;;;;;;;;;;;21.32;58.37;101759.53;4188614;28;20028;-62
2023/09/08 01:55:39;;;;;;;;;;;;;;;21.30;58.50;101758.88;4173390;28;20343;-65
2023/09/08 01:57:42;;;;;;;;;;;;;;;21.28;58.55;101758.28;4179493;28;20015;-64
2023/09/08 01:59:44;;;;;;;;;;;;;;;21.26;58.72;101758.50;4173636;28;20456;-65
2023/09/08 02:01:46;;;;;;;;;;;;;;;21.24;58.84;101757.88;4188559;28;20023;-63
2023/09/08 02:03:48;;;;;;;;;;;;;;;21.22;58.83;101757.25;4173358;28;20023;-65
2023/09/08 02:05:50;;;;;;;;;;;;;;;21.18;58.64;101759.59;4188986;28;20011;-61
2023/09/08 02:07:52;;;;;;;;;;;;;;;21.15;58.98;101760.06;4188666;28;20031;-64
2023/09/08 02:09:54;;;;;;;;;;;;;;;21.13;59.16;101755.84;4172940;28;20024;-64
2023/09/08 02:11:55;;;;;;;;;;;;;;;21.13;59.00;101753.09;4178068;28;20023;-65
2023/09/08 02:13:59;;;;;;;;;;;;;;;21.11;59.22;101752.47;4186617;28;20390;-64
2023/09/08 02:16:01;;;;;;;;;;;;;;;21.09;59.36;101751.88;4173060;28;20011;-62
2023/09/08 02:18:03;;;;;;;;;;;;;;;21.06;59.23;101750.41;4178752;28;20011;-65
2023/09/08 02:20:05;;;;;;;;;;;;;;;21.04;59.23;101749.78;4172440;28;19928;-61
2023/09/08 02:22:07;;;;;;;;;;;;;;;21.02;59.29;101751.94;4172663;28;20019;-62
2023/09/08 02:24:09;;;;;;;;;;;;;;;20.99;59.27;101744.13;4187966;28;20020;-62
2023/09/08 02:26:12;;;;;;;;;;;;;;;20.97;59.50;101747.09;4187339;28;20043;-64
2023/09/08 02:28:14;;;;;;;;;;;;;;;20.95;59.42;101749.22;4173676;28;20024;-62
2023/09/08 02:30:18;;;;;;;;;;;;;;;20.93;59.60;101747.75;4187154;28;20023;-65
2023/09/08 02:32:19;;;;;;;;;;;;;;;20.91;59.46;101748.00;4171147;28;20024;-63
2023/09/08 02:34:21;;;;;;;;;;;;;;;20.89;59.71;101750.09;4172896;28;20360;-64
2023/09/08 02:36:26;;;;;;;;;;;;;;;20.86;59.56;101745.03;4171530;28;20482;-64
2023/09/08 02:38:28;;;;;;;;;;;;;;;20.84;59.75;101747.19;4172387;28;20032;-64
2023/09/08 02:40:30;;;;;;;;;;;;;;;20.81;59.78;101740.22;4178336;28;20498;-64
2023/09/08 02:42:34;;;;;;;;;;;;;;;20.79;59.66;101736.84;4173097;28;19929;-64
2023/09/08 02:44:36;;;;;;;;;;;;;;;20.78;59.74;101739.81;4188375;28;20361;-62
2023/09/08 02:46:38;;;;;;;;;;;;;;;20.76;59.83;101742.78;4170651;28;19948;-64
2023/09/08 02:48:40;;;;;;;;;;;;;;;20.75;59.77;101740.25;4194632;28;20011;-63
2023/09/08 02:50:42;;;;;;;;;;;;;;;20.72;59.89;101738.81;4178487;28;20035;-62
2023/09/08 02:52:45;;;;;;;;;;;;;;;20.70;59.97;101740.94;4177115;28;20487;-62
2023/09/08 02:54:49;;;;;;;;;;;;;;;20.70;59.96;101732.69;4172657;28;20370;-64
2023/09/08 02:56:51;;;;;;;;;;;;;;;20.68;59.91;101738.41;4178180;28;20446;-63
2023/09/08 02:58:54;;;;;;;;;;;;;;;20.68;59.79;101732.06;4178811;28;20027;-62
2023/09/08 03:00:56;;;;;;;;;;;;;;;20.66;60.02;101735.03;4186772;28;20398;-64
2023/09/08 03:03:00;;;;;;;;;;;;;;;20.64;60.13;101725.31;4172500;28;20073;-64
2023/09/08 03:05:02;;;;;;;;;;;;;;;20.61;60.09;101734.84;4171205;28;20028;-61
2023/09/08 03:07:04;;;;;;;;;;;;;;;20.61;60.42;101736.72;4154673;28;20028;-64
2023/09/08 03:09:07;;;;;;;;;;;;;;;20.58;60.22;101727.03;4171365;28;20035;-64
2023/09/08 03:11:09;;;;;;;;;;;;;;;20.56;60.21;101731.88;4178342;28;20027;-65
2023/09/08 03:13:11;;;;;;;;;;;;;;;20.54;60.27;101728.53;4170193;28;20020;-64
2023/09/08 03:15:12;;;;;;;;;;;;;;;20.53;60.26;101730.44;4172490;28;19956;-65
2023/09/08 03:17:14;;;;;;;;;;;;;;;20.52;60.39;101731.50;4171735;28;20025;-64
2023/09/08 03:19:17;;;;;;;;;;;;;;;20.48;60.51;101730.25;4178303;28;20537;-64
2023/09/08 03:21:20;;;;;;;;;;;;;;;20.46;60.67;101726.88;4171833;28;20056;-64
2023/09/08 03:23:22;;;;;;;;;;;;;;;20.45;60.62;101724.34;4172749;28;20016;-64
2023/09/08 03:25:24;;;;;;;;;;;;;;;20.44;60.78;101726.28;4177260;28;20020;-63
2023/09/08 03:27:26;;;;;;;;;;;;;;;20.44;60.65;101725.41;4172611;28;20028;-64
2023/09/08 03:29:30;;;;;;;;;;;;;;;20.41;60.71;101718.47;4177125;28;20461;-63
2023/09/08 03:31:32;;;;;;;;;;;;;;;20.40;60.85;101725.00;4171614;28;20447;-62
2023/09/08 03:33:34;;;;;;;;;;;;;;;20.39;60.80;101726.09;4170981;28;20025;-63
2023/09/08 03:35:37;;;;;;;;;;;;;;;20.39;61.05;101717.84;4176349;28;20439;-63
2023/09/08 03:37:39;;;;;;;;;;;;;;;20.38;61.02;101720.81;4172099;28;20359;-64
2023/09/08 03:39:42;;;;;;;;;;;;;;;20.38;60.90;101727.13;4170484;28;20470;-64
2023/09/08 03:41:44;;;;;;;;;;;;;;;20.37;60.87;101722.69;4177909;28;19928;-64
2023/09/08 03:43:49;;;;;;;;;;;;;;;20.34;60.77;101724.00;4186893;28;20034;-62
2023/09/08 03:45:51;;;;;;;;;;;;;;;20.34;61.02;101728.63;4177821;28;20067;-64
2023/09/08 03:47:53;;;;;;;;;;;;;;;20.31;60.94;101727.19;4172341;28;20028;-61
2023/09/08 03:49:54;;;;;;;;;;;;;;;20.31;60.83;101729.06;4171242;28;20004;-63
2023/09/08 03:51:58;;;;;;;;;;;;;;;20.31;61.04;101729.94;4186637;28;20031;-64
2023/09/08 03:54:00;;;;;;;;;;;;;;;20.30;61.08;101722.75;4171904;28;20015;-63
2023/09/08 03:56:04;;;;;;;;;;;;;;;20.29;61.03;101722.97;4170299;28;20393;-64
2023/09/08 03:58:06;;;;;;;;;;;;;;;20.28;61.03;101722.13;4169914;28;20028;-64
2023/09/08 04:00:10;;;;;;;;;;;;;;;20.26;61.11;101721.47;4170923;28;20023;-64
2023/09/08 04:02:16;;;;;;;;;;;;;;;20.25;61.09;101722.56;4177714;28;19980;-64
2023/09/08 04:04:19;;;;;;;;;;;;;;;20.26;61.02;101731.63;4185825;28;20466;-65
2023/09/08 04:06:22;;;;;;;;;;;;;;;20.22;61.12;101733.09;4177147;28;20019;-64
2023/09/08 04:08:25;;;;;;;;;;;;;;;20.21;61.23;101725.97;4171843;28;20015;-62
2023/09/08 04:10:27;;;;;;;;;;;;;;;20.20;61.18;101727.00;4171052;28;20369;-62
2023/09/08 04:12:29;;;;;;;;;;;;;;;20.16;61.30;101724.69;4186631;28;20024;-63
2023/09/08 04:14:33;;;;;;;;;;;;;;;20.16;61.20;101729.34;4177908;28;20016;-63
2023/09/08 04:16:36;;;;;;;;;;;;;;;20.14;61.20;101728.72;4176736;28;20019;-63
2023/09/08 04:18:38;;;;;;;;;;;;;;;20.12;61.53;101728.91;4176314;28;20019;-61
2023/09/08 04:20:40;;;;;;;;;;;;;;;20.10;61.60;101722.81;4171390;28;20007;-63
2023/09/08 04:22:42;;;;;;;;;;;;;;;20.09;61.48;101728.53;4170549;28;20023;-60
2023/09/08 04:24:46;;;;;;;;;;;;;;;20.07;61.42;101730.66;4170009;28;20103;-61
2023/09/08 04:26:48;;;;;;;;;;;;;;;20.07;61.38;101736.13;4171947;28;19964;-62
2023/09/08 04:28:50;;;;;;;;;;;;;;;20.04;61.66;101726.44;4170594;28;20007;-64
2023/09/08 04:30:52;;;;;;;;;;;;;;;20.03;61.56;101733.00;4172056;28;19925;-61
2023/09/08 04:32:54;;;;;;;;;;;;;;;20.03;61.56;101732.13;4169928;28;20019;-62
2023/09/08 04:34:56;;;;;;;;;;;;;;;20.00;61.68;101730.69;4170709;28;20051;-61
2023/09/08 04:36:58;;;;;;;;;;;;;;;20.01;61.72;101737.00;4170654;28;20036;-64
2023/09/08 04:39:00;;;;;;;;;;;;;;;19.99;61.65;101732.56;4170469;28;20035;-62
2023/09/08 04:41:03;;;;;;;;;;;;;;;19.99;61.91;101742.69;4171071;28;20835;-60
2023/09/08 04:43:05;;;;;;;;;;;;;;;19.98;62.08;101733.63;4171357;28;19933;-63
2023/09/08 04:45:09;;;;;;;;;;;;;;;19.99;61.95;101743.53;4186402;28;20398;-61
2023/09/08 04:47:12;;;;;;;;;;;;;;;19.99;61.89;101731.72;4177324;28;20024;-62
2023/09/08 04:49:14;;;;;;;;;;;;;;;20.01;61.91;101739.72;4178796;28;20027;-64
2023/09/08 04:51:16;;;;;;;;;;;;;;;20.01;61.94;101740.56;4174954;28;20044;-63
2023/09/08 04:53:18;;;;;;;;;;;;;;;20.01;61.83;101734.25;4164814;28;20507;-62
2023/09/08 04:55:20;;;;;;;;;;;;;;;20.00;61.91;101736.16;4180972;28;20482;-63
2023/09/08 04:57:24;;;;;;;;;;;;;;;20.01;61.96;101737.81;4173549;28;20003;-63
2023/09/08 04:59:31;;;;;;;;;;;;;;;20.01;62.01;101743.31;4171884;28;20366;-64
2023/09/08 05:01:36;;;;;;;;;;;;;;;20.00;61.97;101736.16;4188837;28;20032;-63
2023/09/08 05:03:39;;;;;;;;;;;;;;;19.99;62.09;101740.78;4180769;28;20485;-60
2023/09/08 05:05:43;;;;;;;;;;;;;;;19.98;62.24;101741.84;4172636;28;20447;-62
2023/09/08 05:07:45;;;;;;;;;;;;;;;19.98;62.24;101736.38;4174674;28;19961;-61
2023/09/08 05:09:47;;;;;;;;;;;;;;;20.00;62.27;101744.38;4190219;28;20050;-61
2023/09/08 05:11:50;;;;;;;;;;;;;;;19.98;62.24;101743.75;4173557;28;20034;-63
2023/09/08 05:13:53;;;;;;;;;;;;;;;19.98;62.28;101746.47;4190009;28;20060;-63
2023/09/08 05:15:59;;;;;;;;;;;;;;;19.98;62.38;101750.09;4180587;28;20012;-63
2023/09/08 05:18:04;;;;;;;;;;;;;;;20.00;62.38;101747.13;4180286;28;20020;-63
2023/09/08 05:20:07;;;;;;;;;;;;;;;20.02;62.41;101750.50;4173947;28;20358;-63
2023/09/08 05:22:09;;;;;;;;;;;;;;;20.01;62.51;101743.31;4173650;28;20373;-61
2023/09/08 05:24:11;;;;;;;;;;;;;;;20.02;62.19;101742.25;4172168;28;19924;-60
2023/09/08 05:26:13;;;;;;;;;;;;;;;20.04;62.17;101742.06;4188281;28;20027;-64
2023/09/08 05:28:15;;;;;;;;;;;;;;;20.05;62.22;101746.47;4173689;28;20020;-63
2023/09/08 05:30:19;;;;;;;;;;;;;;;20.06;62.36;101743.53;4187954;28;20028;-63
2023/09/08 05:32:22;;;;;;;;;;;;;;;20.07;62.27;101738.88;4189771;28;20023;-62
2023/09/08 05:34:24;;;;;;;;;;;;;;;20.06;62.39;101743.53;4189388;28;20401;-61
2023/09/08 05:36:26;;;;;;;;;;;;;;;20.07;62.25;101739.72;4173781;28;20007;-63
2023/09/08 05:38:28;;;;;;;;;;;;;;;20.07;62.30;101739.72;4180714;28;20027;-63
2023/09/08 05:40:30;;;;;;;;;;;;;;;20.10;62.07;101743.94;4172346;28;20048;-63
2023/09/08 05:42:33;;;;;;;;;;;;;;;20.12;62.21;101742.63;4175040;28;20515;-64
2023/09/08 05:44:36;;;;;;;;;;;;;;;20.14;62.11;101742.41;4190040;28;19936;-63
2023/09/08 05:46:39;;;;;;;;;;;;;;;20.16;62.13;101741.16;4189871;28;20047;-64
2023/09/08 05:48:41;;;;;;;;;;;;;;;20.20;61.97;101746.22;4173697;28;20011;-64
2023/09/08 05:50:44;;;;;;;;;;;;;;;20.22;62.17;101744.06;4181000;28;20007;-63
2023/09/08 05:52:46;;;;;;;;;;;;;;;20.24;61.96;101742.81;4173423;28;19964;-63
2023/09/08 05:54:48;;;;;;;;;;;;;;;20.26;61.87;101746.16;4179639;28;20350;-63
2023/09/08 05:56:51;;;;;;;;;;;;;;;20.29;62.19;101744.91;4174479;28;20047;-64
2023/09/08 05:58:53;;;;;;;;;;;;;;;20.32;61.94;101744.47;4173745;28;19964;-64
2023/09/08 06:00:55;;;;;;;;;;;;;;;20.34;61.81;101748.69;4188736;28;20428;-64
2023/09/08 06:02:58;;;;;;;;;;;;;;;20.36;61.86;101751.22;4189266;28;20019;-64
2023/09/08 06:05:02;;;;;;;;;;;;;;;20.39;61.94;101741.69;4172888;28;20470;-64
2023/09/08 06:07:04;;;;;;;;;;;;;;;20.41;61.81;101745.91;4188488;28;20019;-64
2023/09/08 06:09:08;;;;;;;;;;;;;;;20.44;61.71;101745.47;4176055;28;20086;-65
2023/09/08 06:11:12;;;;;;;;;;;;;;;20.47;61.87;101745.03;4175717;28;20019;-62
2023/09/08 06:13:13;;;;;;;;;;;;;;;20.50;61.71;101747.34;4177611;28;20012;-64
2023/09/08 06:15:17;;;;;;;;;;;;;;;20.53;61.69;101743.31;4161912;28;19952;-64
2023/09/08 06:17:20;;;;;;;;;;;;;;;20.56;61.68;101745.59;4187790;28;20099;-64
2023/09/08 06:19:24;;;;;;;;;;;;;;;20.58;61.64;101748.13;4187737;28;20378;-63
2023/09/08 06:21:26;;;;;;;;;;;;;;;20.59;61.46;101739.69;4188417;28;20382;-63
2023/09/08 06:23:29;;;;;;;;;;;;;;;20.63;61.22;101742.84;4188444;28;20119;-63
2023/09/08 06:25:31;;;;;;;;;;;;;;;20.67;61.15;101744.09;4178096;28;19929;-64
2023/09/08 06:27:34;;;;;;;;;;;;;;;20.71;61.15;101745.38;4178807;28;20468;-65
2023/09/08 06:29:36;;;;;;;;;;;;;;;20.75;61.08;101745.75;4186879;28;20011;-69
2023/09/08 06:31:43;;;;;;;;;;;;;;;20.80;61.65;101744.03;4177588;28;20019;-69
2023/09/08 06:33:51;;;;;;;;;;;;;;;20.86;61.40;101742.28;4171240;28;19964;-69
2023/09/08 06:35:56;;;;;;;;;;;;;;;20.92;61.03;101746.91;4172492;28;20016;-69
2023/09/08 06:37:58;;;;;;;;;;;;;;;20.96;60.72;101742.66;4173852;28;19944;-69
2023/09/08 06:40:01;;;;;;;;;;;;;;;21.01;60.65;101740.09;4170810;28;20470;-68
2023/09/08 06:42:05;;;;;;;;;;;;;;;21.06;60.47;101744.91;4186490;28;20015;-68
2023/09/08 06:44:10;;;;;;;;;;;;;;;21.13;60.53;101739.34;4186279;28;19932;-69
2023/09/08 06:46:12;;;;;;;;;;;;;;;21.17;60.50;101735.94;4176555;28;20031;-69
2023/09/08 06:48:14;;;;;;;;;;;;;;;21.22;60.30;101732.53;4171337;28;20023;-69
2023/09/08 06:50:15;;;;;;;;;;;;;;;21.28;59.97;101739.03;4186501;28;20023;-69
2023/09/08 06:52:18;;;;;;;;;;;;;;;21.33;60.14;101737.31;4187117;28;20434;-68
2023/09/08 06:54:20;;;;;;;;;;;;;;;21.39;60.22;101735.56;4172426;28;20012;-68
2023/09/08 06:56:23;;;;;;;;;;;;;;;21.44;59.86;101732.97;4171546;28;20079;-68
2023/09/08 06:58:32;;;;;;;;;;;;;;;21.51;59.70;101733.78;4170419;28;20015;-69
2023/09/08 07:00:37;;;;;;;;;;;;;;;21.56;59.42;101728.44;4186555;28;20064;-69
2023/09/08 07:02:40;;;;;;;;;;;;;;;21.62;59.28;101728.63;4186802;28;20019;-69
2023/09/08 07:04:42;;;;;;;;;;;;;;;21.67;59.28;101737.03;4172072;28;20019;-68
2023/09/08 07:06:46;;;;;;;;;;;;;;;21.71;59.32;101738.25;4172181;28;20015;-69
2023/09/08 07:08:55;;;;;;;;;;;;;;;21.77;58.96;101724.44;4177879;28;20019;-69
2023/09/08 07:10:57;;;;;;;;;;;;;;;21.80;58.54;101728.63;4177848;28;20024;-69
2023/09/08 07:13:00;;;;;;;;;;;;;;;21.85;58.87;101731.53;4168704;28;20419;-68
2023/09/08 07:15:02;;;;;;;;;;;;;;;21.89;58.83;101727.25;4170274;28;20374;-69
2023/09/08 07:17:04;;;;;;;;;;;;;;;21.94;58.47;101732.06;4186495;28;20027;-69
2023/09/08 07:19:06;;;;;;;;;;;;;;;21.99;58.61;101735.00;4177895;28;20015;-68
2023/09/08 07:21:09;;;;;;;;;;;;;;;22.02;58.40;101734.53;4177525;28;20023;-69
2023/09/08 07:23:11;;;;;;;;;;;;;;;22.05;58.34;101733.22;4186047;28;20021;-69
2023/09/08 07:25:15;;;;;;;;;;;;;;;22.07;58.24;101734.69;4186995;28;20023;-69
2023/09/08 07:27:19;;;;;;;;;;;;;;;22.11;58.30;101735.03;4177645;28;19925;-69
2023/09/08 07:29:20;;;;;;;;;;;;;;;22.15;58.09;101739.03;4177034;28;20077;-69
2023/09/08 07:31:25;;;;;;;;;;;;;;;22.19;57.89;101729.22;4177084;28;20024;-68
2023/09/08 07:33:28;;;;;;;;;;;;;;;22.22;58.09;101733.44;4177429;28;20040;-69
2023/09/08 07:35:29;;;;;;;;;;;;;;;22.24;58.10;101726.66;4172024;28;20023;-70
2023/09/08 07:37:32;;;;;;;;;;;;;;;22.28;57.91;101725.09;4171760;28;20016;-69
2023/09/08 07:39:35;;;;;;;;;;;;;;;22.32;57.80;101731.03;4176593;28;20015;-69
2023/09/08 07:41:41;;;;;;;;;;;;;;;22.37;57.93;101735.84;4177255;28;20011;-69
2023/09/08 07:43:45;;;;;;;;;;;;;;;22.41;57.63;101735.13;4171374;28;20011;-70
2023/09/08 07:45:49;;;;;;;;;;;;;;;22.46;57.41;101728.91;4170526;28;20499;-64
2023/09/08 07:47:51;;;;;;;;;;;;;;;22.49;57.20;101728.44;4171395;28;19933;-64
2023/09/08 07:49:53;;;;;;;;;;;;;;;22.51;57.14;101731.81;4171456;28;20015;-64
2023/09/08 07:51:55;;;;;;;;;;;;;;;22.54;56.99;101728.59;4170971;28;20025;-64
2023/09/08 07:53:57;;;;;;;;;;;;;;;22.57;56.98;101724.53;4171598;28;20429;-64
2023/09/08 07:55:58;;;;;;;;;;;;;;;22.60;57.16;101735.06;4177671;28;19998;-64
2023/09/08 07:58:03;;;;;;;;;;;;;;;22.63;56.94;101738.22;4171568;28;19929;-63
2023/09/08 08:00:06;;;;;;;;;;;;;;;22.65;56.87;101736.06;4171095;28;20011;-64
2023/09/08 08:02:13;;;;;;;;;;;;;;;22.68;56.74;101737.53;4171800;28;20011;-64
2023/09/08 08:04:15;;;;;;;;;;;;;;;22.73;56.86;101740.41;4171236;28;20032;-64
2023/09/08 08:06:17;;;;;;;;;;;;;;;22.74;56.65;101736.56;4170798;28;20016;-64
2023/09/08 08:08:19;;;;;;;;;;;;;;;22.79;56.51;101738.59;4171124;28;19929;-65
2023/09/08 08:10:21;;;;;;;;;;;;;;;22.83;56.45;101742.59;4171047;28;20020;-65
2023/09/08 08:12:22;;;;;;;;;;;;;;;22.85;56.29;101738.53;4171462;28;20071;-64
2023/09/08 08:14:26;;;;;;;;;;;;;;;22.89;56.40;101736.13;4171611;28;20012;-64
2023/09/08 08:16:27;;;;;;;;;;;;;;;22.94;56.03;101732.69;4171541;28;20019;-65
2023/09/08 08:18:29;;;;;;;;;;;;;;;22.96;56.03;101725.88;4171955;28;19929;-64
2023/09/08 08:20:34;;;;;;;;;;;;;;;23.00;55.88;101731.75;4171551;28;20413;-64
2023/09/08 08:22:35;;;;;;;;;;;;;;;23.03;55.75;101732.09;4171586;28;20011;-64
2023/09/08 08:24:37;;;;;;;;;;;;;;;23.06;56.01;101730.78;4176662;28;20385;-64
2023/09/08 08:26:39;;;;;;;;;;;;;;;23.09;55.59;101735.00;4176942;28;20044;-64
2023/09/08 08:28:41;;;;;;;;;;;;;;;23.12;55.53;101726.25;4177046;28;19933;-60
2023/09/08 08:30:44;;;;;;;;;;;;;;;23.16;55.40;101730.25;4175909;28;20604;-62
2023/09/08 08:32:46;;;;;;;;;;;;;;;23.19;55.48;101730.59;4177063;28;20044;-64
2023/09/08 08:34:49;;;;;;;;;;;;;;;23.22;55.39;101721.03;4176580;28;20015;-64
2023/09/08 08:36:50;;;;;;;;;;;;;;;23.25;55.25;101717.78;4178601;28;20031;-64
2023/09/08 08:38:52;;;;;;;;;;;;;;;23.29;55.27;101720.91;4174506;28;20917;-64
2023/09/08 08:40:54;;;;;;;;;;;;;;;23.32;55.34;101728.69;4177115;28;20019;-65
2023/09/08 08:42:57;;;;;;;;;;;;;;;23.36;55.23;101724.38;4177739;28;20052;-64
2023/09/08 08:44:59;;;;;;;;;;;;;;;23.39;55.09;101724.75;4175592;28;20024;-65
2023/09/08 08:47:02;;;;;;;;;;;;;;;23.44;55.07;101725.97;4173962;28;19967;-64
2023/09/08 08:49:05;;;;;;;;;;;;;;;23.47;55.03;101722.72;4175967;28;20445;-65
2023/09/08 08:51:07;;;;;;;;;;;;;;;23.51;54.68;101723.91;4175750;28;20446;-65
2023/09/08 08:53:09;;;;;;;;;;;;;;;23.53;54.78;101722.59;4175423;28;20016;-65
2023/09/08 08:55:11;;;;;;;;;;;;;;;23.57;54.55;101711.91;4175527;28;20048;-64
2023/09/08 08:57:13;;;;;;;;;;;;;;;23.60;54.57;101714.19;4175366;28;20024;-64
2023/09/08 08:59:15;;;;;;;;;;;;;;;23.65;54.36;101721.75;4175781;28;20036;-65
2023/09/08 09:01:18;;;;;;;;;;;;;;;23.66;54.49;101707.72;4176886;28;20032;-64
2023/09/08 09:03:22;;;;;;;;;;;;;;;23.70;54.50;101722.72;4176692;28;20020;-64
2023/09/08 09:05:23;;;;;;;;;;;;;;;23.74;54.25;101721.13;4177652;28;20016;-64
2023/09/08 09:07:25;;;;;;;;;;;;;;;23.75;54.20;101711.78;4176117;28;19932;-65
2023/09/08 09:09:27;;;;;;;;;;;;;;;23.80;54.04;101715.75;4176835;28;20020;-64
2023/09/08 09:11:30;;;;;;;;;;;;;;;23.82;54.01;101708.88;4182889;28;20020;-64
2023/09/08 09:13:32;;;;;;;;;;;;;;;23.85;53.85;101708.44;4175917;28;20026;-63
2023/09/08 09:15:34;;;;;;;;;;;;;;;23.87;53.91;101711.81;4176253;28;20448;-62
2023/09/08 09:17:36;;;;;;;;;;;;;;;23.91;54.09;101709.38;4176461;28;19968;-65
2023/09/08 09:19:39;;;;;;;;;;;;;;;23.93;53.64;101709.97;4176783;28;20056;-64
2023/09/08 09:21:42;;;;;;;;;;;;;;;23.95;53.95;101707.84;4175708;28;20691;-64
2023/09/08 09:23:44;;;;;;;;;;;;;;;23.98;53.57;101706.50;4174539;28;20120;-64
2023/09/08 09:25:46;;;;;;;;;;;;;;;24.00;53.53;101699.66;4174682;28;20016;-65
2023/09/08 09:27:49;;;;;;;;;;;;;;;24.02;53.79;101711.28;4175027;28;20028;-65
2023/09/08 09:29:51;;;;;;;;;;;;;;;24.04;53.63;101709.09;4175249;28;19983;-64
2023/09/08 09:31:54;;;;;;;;;;;;;;;24.06;53.29;101706.97;4175337;28;20020;-64
2023/09/08 09:34:04;;;;;;;;;;;;;;;24.07;53.33;101711.38;4176746;28;20475;-65
2023/09/08 09:36:09;;;;;;;;;;;;;;;24.10;53.34;101710.06;4172582;28;20023;-65
2023/09/08 09:38:11;;;;;;;;;;;;;;;24.11;53.49;101711.75;4173823;28;20016;-64
2023/09/08 09:40:13;;;;;;;;;;;;;;;24.13;53.21;101708.75;4172804;28;20029;-65
2023/09/08 09:42:14;;;;;;;;;;;;;;;24.15;53.38;101709.34;4173329;28;20019;-64
2023/09/08 09:44:16;;;;;;;;;;;;;;;24.16;53.10;101706.31;4173705;28;19955;-64
2023/09/08 09:46:17;;;;;;;;;;;;;;;24.17;53.22;101701.63;4173830;28;20044;-65
2023/09/08 09:48:21;;;;;;;;;;;;;;;24.20;53.15;101706.66;4172070;28;19932;-65
2023/09/08 09:50:27;;;;;;;;;;;;;;;24.20;52.98;101707.53;4173514;28;19929;-64
2023/09/08 09:52:31;;;;;;;;;;;;;;;24.22;53.05;101696.25;4171869;28;20362;-65
2023/09/08 09:54:33;;;;;;;;;;;;;;;24.23;52.90;101698.75;4170677;28;20015;-64
2023/09/08 09:56:35;;;;;;;;;;;;;;;24.24;52.89;101694.06;4171678;28;20019;-65
2023/09/08 09:58:37;;;;;;;;;;;;;;;24.25;52.98;101693.81;4171792;28;20012;-64
2023/09/08 10:00:40;;;;;;;;;;;;;;;24.29;52.86;101696.91;4173976;28;20454;-64
2023/09/08 10:02:42;;;;;;;;;;;;;;;24.29;52.99;101686.72;4173808;28;20459;-64
2023/09/08 10:04:44;;;;;;;;;;;;;;;24.31;52.99;101682.88;4172909;28;20446;-61
2023/09/08 10:06:46;;;;;;;;;;;;;;;24.31;52.93;101683.72;4173280;28;20020;-62
2023/09/08 10:08:50;;;;;;;;;;;;;;;24.33;52.58;101678.78;4173645;28;20012;-64
2023/09/08 10:10:52;;;;;;;;;;;;;;;24.35;52.47;101681.31;4172624;28;20362;-63
2023/09/08 10:12:54;;;;;;;;;;;;;;;24.35;52.49;101678.53;4172966;28;20020;-62
2023/09/08 10:14:55;;;;;;;;;;;;;;;24.36;52.61;101675.53;4172734;28;20043;-62
2023/09/08 10:16:58;;;;;;;;;;;;;;;24.38;52.74;101676.13;4172725;28;20023;-64
2023/09/08 10:19:00;;;;;;;;;;;;;;;24.39;52.68;101675.03;4171826;28;20024;-64
2023/09/08 10:21:04;;;;;;;;;;;;;;;24.41;52.47;101672.84;4171522;28;20047;-63
2023/09/08 10:23:09;;;;;;;;;;;;;;;24.42;52.31;101681.97;4171815;28;20027;-63
2023/09/08 10:25:13;;;;;;;;;;;;;;;24.44;52.41;101677.88;4172058;28;20011;-62
2023/09/08 10:27:18;;;;;;;;;;;;;;;24.45;52.71;101668.53;4173355;28;20015;-64
2023/09/08 10:29:21;;;;;;;;;;;;;;;24.46;52.14;101667.41;4173474;28;20012;-64